Time;durP1;ratioP1;P1;durP2;ratioP2;P2;SDS_P1;SDS_P2;PMS_P1;PMS_P2;Temp;Humidity;BMP_temperature;BMP_pressure;BME280_temperature;BME280_humidity;BME280_pressure;Samples;Min_cycle;Max_cycle;Signal;HPM_P1;HPM_P2
2022/01/26 00:07:29;;;;;;;8.40;4.20;;;22.40;57.40;;;;;;215659;1293;22791;-58
2022/01/26 00:12:33;;;;;;;9.70;4.60;;;22.30;57.60;;;;;;215490;1293;24337;-57
2022/01/26 00:17:38;;;;;;;10.10;4.20;;;22.20;57.40;;;;;;215464;1293;25338;-56
2022/01/26 00:38:49;;;;;;;8.70;4.40;;;22.10;57.30;;;;;;215565;1293;22604;-58
2022/01/26 00:43:56;;;;;;;9.30;4.20;;;22.00;57.10;;;;;;215633;1292;25266;-57
2022/01/26 00:48:59;;;;;;;8.70;3.80;;;22.40;56.30;;;;;;215641;1293;22609;-58
2022/01/26 00:54:06;;;;;;;7.50;3.50;;;22.90;55.10;;;;;;215571;1293;25409;-58
2022/01/26 00:59:11;;;;;;;8.10;3.70;;;23.20;54.20;;;;;;215683;1293;22660;-58
2022/01/26 01:04:15;;;;;;;6.40;3.60;;;23.30;53.50;;;;;;215565;1293;25550;-59
2022/01/26 01:09:20;;;;;;;7.70;3.50;;;23.50;53.50;;;;;;215595;1293;22586;-57
2022/01/26 01:14:25;;;;;;;10.00;4.10;;;23.60;52.80;;;;;;215315;1293;23090;-58
2022/01/26 01:19:38;;;;;;;9.80;3.50;;;23.70;52.60;;;;;;215658;1294;22593;-59
2022/01/26 01:35:24;;;;;;;6.00;3.40;;;23.90;52.00;;;;;;215400;1293;25252;-59
2022/01/26 01:40:28;;;;;;;6.40;3.50;;;24.00;51.70;;;;;;215947;1293;25487;-57
2022/01/26 01:45:37;;;;;;;6.30;3.10;;;24.00;51.90;;;;;;215572;1293;22665;-61
2022/01/26 01:50:42;;;;;;;9.10;3.30;;;24.10;51.40;;;;;;215891;1293;22589;-59
2022/01/26 01:55:50;;;;;;;6.70;3.40;;;24.10;51.30;;;;;;215858;1293;25321;-57
2022/01/26 02:00:54;;;;;;;10.00;3.10;;;24.10;51.20;;;;;;215676;1293;22975;-58
2022/01/26 02:05:59;;;;;;;5.30;3.10;;;24.10;51.40;;;;;;215696;1293;25460;-57
2022/01/26 02:11:06;;;;;;;6.40;3.10;;;24.10;51.00;;;;;;215491;1296;22576;-59
2022/01/26 02:16:22;;;;;;;7.00;2.90;;;24.20;50.90;;;;;;215104;1293;22592;-58
2022/01/26 02:54:11;;;;;;;5.30;3.00;;;23.40;52.50;;;;;;215005;1297;25361;-57
2022/01/26 02:59:34;;;;;;;4.90;2.60;;;23.30;52.70;;;;;;215181;1296;24250;-57
2022/01/26 03:04:44;;;;;;;6.00;2.50;;;23.20;53.00;;;;;;214895;1296;23108;-57
2022/01/26 03:10:01;;;;;;;5.60;2.90;;;23.10;53.00;;;;;;215233;1294;22592;-58
2022/01/26 03:15:14;;;;;;;4.20;2.70;;;23.00;53.10;;;;;;214992;1296;23681;-57
2022/01/26 03:20:17;;;;;;;4.40;2.50;;;23.00;53.30;;;;;;215511;1293;22688;-56
2022/01/26 03:35:51;;;;;;;7.50;2.90;;;22.80;53.60;;;;;;215185;1298;22629;-57
2022/01/26 03:41:13;;;;;;;4.30;2.80;;;22.80;54.00;;;;;;215248;1298;22637;-57
2022/01/26 03:46:17;;;;;;;4.40;2.60;;;22.80;54.00;;;;;;215358;1293;22796;-58
2022/01/26 03:51:21;;;;;;;5.90;3.00;;;22.70;54.30;;;;;;215084;1299;22722;-60
2022/01/26 03:56:25;;;;;;;4.10;2.50;;;22.50;54.70;;;;;;215140;1298;22854;-58
2022/01/26 04:01:29;;;;;;;5.60;2.70;;;22.50;55.10;;;;;;214949;1297;22613;-57
2022/01/26 04:06:35;;;;;;;7.00;2.50;;;22.40;55.30;;;;;;215173;1297;22728;-57
2022/01/26 04:11:42;;;;;;;3.90;2.20;;;22.30;55.50;;;;;;215357;1294;25435;-56
2022/01/26 04:16:46;;;;;;;6.10;3.50;;;22.30;56.10;;;;;;215381;1294;23110;-57
2022/01/26 04:22:09;;;;;;;5.30;2.70;;;22.30;56.10;;;;;;215254;1298;22759;-57
2022/01/26 04:32:17;;;;;;;4.60;2.40;;;22.20;56.40;;;;;;215304;1293;22612;-58
2022/01/26 04:42:50;;;;;;;4.20;2.70;;;22.10;56.50;;;;;;215278;1294;22608;-59
2022/01/26 04:47:54;;;;;;;5.80;3.00;;;22.10;57.00;;;;;;215352;1293;23068;-59
2022/01/26 04:52:57;;;;;;;4.60;2.90;;;22.10;56.80;;;;;;215566;1294;22594;-59
2022/01/26 04:58:01;;;;;;;3.90;2.60;;;22.00;56.60;;;;;;215111;1294;22592;-58
2022/01/26 05:03:04;;;;;;;4.00;2.40;;;22.00;56.40;;;;;;215470;1296;25370;-56
2022/01/26 05:08:13;;;;;;;4.00;2.20;;;22.10;56.30;;;;;;215389;1296;22707;-58
2022/01/26 05:13:17;;;;;;;5.00;2.40;;;22.50;55.10;;;;;;215418;1296;22652;-57
2022/01/26 05:18:21;;;;;;;4.80;2.40;;;23.00;54.10;;;;;;215227;1293;22627;-60
2022/01/26 05:23:30;;;;;;;4.20;2.20;;;23.20;53.00;;;;;;215071;1296;25126;-57
2022/01/26 05:28:34;;;;;;;4.00;2.50;;;23.40;53.00;;;;;;215088;1294;26748;-56
2022/01/26 05:33:38;;;;;;;4.40;2.10;;;23.50;52.20;;;;;;215158;1296;22667;-58
2022/01/26 05:38:42;;;;;;;3.70;2.40;;;23.70;51.80;;;;;;215576;1293;25255;-56
2022/01/26 05:43:46;;;;;;;3.60;2.00;;;23.80;51.90;;;;;;215576;1293;22598;-58
2022/01/26 05:48:55;;;;;;;4.00;2.10;;;23.80;51.30;;;;;;215509;1293;25437;-60
2022/01/26 05:54:01;;;;;;;3.70;2.00;;;23.90;51.60;;;;;;215025;1293;415580;-58
2022/01/26 05:59:06;;;;;;;4.40;2.00;;;24.00;51.10;;;;;;215287;1293;23039;-58
2022/01/26 06:04:09;;;;;;;4.80;2.00;;;24.00;50.60;;;;;;215144;1296;22575;-57
2022/01/26 06:09:13;;;;;;;3.40;2.00;;;24.00;50.60;;;;;;215349;1294;25397;-56
2022/01/26 06:14:16;;;;;;;3.50;1.70;;;24.10;50.70;;;;;;215332;1293;22632;-57
2022/01/26 06:19:20;;;;;;;2.80;1.70;;;24.10;50.10;;;;;;214983;1296;22576;-58
2022/01/26 06:24:24;;;;;;;4.00;2.40;;;24.10;50.30;;;;;;215179;1293;23247;-58
2022/01/26 06:29:30;;;;;;;3.20;2.00;;;24.00;50.40;;;;;;215344;1293;25380;-57
2022/01/26 06:34:38;;;;;;;3.70;1.90;;;23.80;50.60;;;;;;215505;1293;24272;-59
2022/01/26 06:39:43;;;;;;;3.40;1.90;;;23.60;51.00;;;;;;215346;1293;23010;-58
2022/01/26 06:45:15;;;;;;;4.90;1.70;;;23.40;51.80;;;;;;215399;1293;22565;-58
2022/01/26 06:50:11;;;;;;;3.70;2.00;;;23.30;51.80;;;;;;215442;1293;26963;-57
2022/01/26 06:55:16;;;;;;;4.80;2.10;;;23.20;52.20;;;;;;215319;1293;25633;-58
2022/01/26 07:00:20;;;;;;;4.20;1.90;;;23.00;52.80;;;;;;215159;1295;22569;-59
2022/01/26 07:05:25;;;;;;;6.40;1.90;;;22.90;53.50;;;;;;215367;1292;25525;-60
2022/01/26 07:10:31;;;;;;;8.00;1.90;;;22.90;54.10;;;;;;214993;1293;22864;-59
2022/01/26 07:26:11;;;;;;;6.70;2.10;;;22.70;55.60;;;;;;215334;1293;22651;-60
2022/01/26 07:31:22;;;;;;;4.80;1.60;;;22.60;55.90;;;;;;215133;1293;25788;-61
2022/01/26 07:36:26;;;;;;;5.60;1.80;;;22.50;56.30;;;;;;214865;1295;23961;-58
2022/01/26 07:41:29;;;;;;;5.40;2.10;;;22.40;56.90;;;;;;215260;1293;23963;-59
2022/01/26 07:46:33;;;;;;;4.90;2.00;;;22.40;56.50;;;;;;215172;1293;22595;-58
2022/01/26 07:51:37;;;;;;;10.30;2.40;;;22.30;56.60;;;;;;215014;1293;25419;-59
2022/01/26 07:56:42;;;;;;;9.10;2.40;;;22.20;57.00;;;;;;215104;1293;25685;-57
2022/01/26 08:01:46;;;;;;;4.50;2.20;;;22.10;57.10;;;;;;214998;1293;26755;-58
2022/01/26 08:06:51;;;;;;;10.20;2.40;;;22.10;57.10;;;;;;215406;1293;25395;-58
2022/01/26 08:11:55;;;;;;;7.50;2.00;;;22.10;57.50;;;;;;215411;1293;22613;-57
2022/01/26 08:16:58;;;;;;;6.10;2.30;;;22.00;57.10;;;;;;215374;1293;25672;-59
2022/01/26 08:22:03;;;;;;;9.40;2.20;;;22.00;57.10;;;;;;215326;1293;22210;-59
2022/01/26 08:27:11;;;;;;;5.40;1.90;;;21.90;56.90;;;;;;215507;1293;22591;-59
2022/01/26 08:32:15;;;;;;;7.20;1.90;;;21.80;56.80;;;;;;219581;1293;22825;-59
2022/01/26 08:37:20;;;;;;;9.10;2.30;;;21.90;56.70;;;;;;217513;1293;22595;-59
2022/01/26 08:42:23;;;;;;;5.30;2.20;;;22.20;55.60;;;;;;216888;1293;25441;-59
2022/01/26 08:47:27;;;;;;;3.10;1.70;;;22.60;54.60;;;;;;215473;1293;23035;-58
2022/01/26 08:52:31;;;;;;;5.70;2.00;;;22.80;53.80;;;;;;215274;1293;26020;-58
2022/01/26 08:57:34;;;;;;;6.90;1.60;;;22.90;54.00;;;;;;215201;1293;22576;-60
2022/01/26 09:02:38;;;;;;;7.40;2.10;;;23.10;53.60;;;;;;215726;1293;24266;-58
2022/01/26 09:07:44;;;;;;;4.30;1.90;;;23.20;53.60;;;;;;215283;1293;22728;-58
2022/01/26 09:12:50;;;;;;;3.40;1.80;;;23.30;53.60;;;;;;215179;1293;24242;-62
2022/01/26 09:18:01;;;;;;;5.50;2.20;;;23.50;53.00;;;;;;215158;1296;23232;-60
2022/01/26 09:23:05;;;;;;;4.10;2.00;;;23.50;53.40;;;;;;215215;1293;25410;-58
2022/01/26 09:28:10;;;;;;;8.30;2.10;;;23.60;52.60;;;;;;215210;1293;22587;-58
2022/01/26 09:33:14;;;;;;;4.80;1.80;;;23.60;52.10;;;;;;215278;1294;23413;-59
2022/01/26 09:38:18;;;;;;;6.20;2.00;;;23.70;52.10;;;;;;215278;1293;24275;-57
2022/01/26 09:43:27;;;;;;;3.90;1.80;;;23.70;51.90;;;;;;215153;1293;28732;-56
2022/01/26 09:48:34;;;;;;;6.50;1.70;;;23.70;52.30;;;;;;215147;1296;24218;-58
2022/01/26 09:53:43;;;;;;;3.30;1.70;;;23.80;51.50;;;;;;215080;1293;22599;-57
2022/01/26 09:59:08;;;;;;;5.60;1.90;;;23.80;51.40;;;;;;215399;1294;23361;-55
2022/01/26 10:04:28;;;;;;;4.30;1.60;;;23.90;51.30;;;;;;215204;1293;25384;-56
2022/01/26 10:09:50;;;;;;;3.50;2.10;;;23.90;50.70;;;;;;215069;1295;22596;-57
2022/01/26 10:20:23;;;;;;;4.20;2.20;;;24.00;50.80;;;;;;214860;1296;22647;-56
2022/01/26 10:25:36;;;;;;;3.30;1.80;;;24.00;50.70;;;;;;215443;1293;22900;-57
2022/01/26 10:30:47;;;;;;;2.70;1.40;;;23.80;50.90;;;;;;215252;1296;22602;-56
2022/01/26 10:36:00;;;;;;;3.60;1.70;;;23.70;51.10;;;;;;215198;1296;26684;-56
2022/01/26 10:41:21;;;;;;;2.90;1.40;;;23.50;52.10;;;;;;215235;1293;25433;-56
2022/01/26 10:46:31;;;;;;;3.60;2.00;;;23.20;51.60;;;;;;215379;1293;22736;-57
2022/01/26 10:51:53;;;;;;;3.50;1.60;;;23.20;52.60;;;;;;215030;1294;22645;-55
2022/01/26 10:57:10;;;;;;;4.90;1.80;;;23.00;52.50;;;;;;215122;1296;22703;-54
2022/01/26 11:02:24;;;;;;;3.80;1.50;;;22.90;52.80;;;;;;215312;1295;22576;-56
2022/01/26 11:07:34;;;;;;;2.60;1.50;;;22.80;52.90;;;;;;215292;1296;22671;-56
2022/01/26 11:12:42;;;;;;;2.60;1.40;;;22.70;53.10;;;;;;215238;1294;24314;-53
2022/01/26 11:17:51;;;;;;;2.10;1.50;;;22.70;53.10;;;;;;215258;1293;22751;-55
2022/01/26 11:23:00;;;;;;;3.30;1.50;;;22.50;53.20;;;;;;215208;1293;25602;-57
2022/01/26 11:28:25;;;;;;;3.00;1.60;;;22.50;53.20;;;;;;215125;1295;24259;-56
2022/01/26 11:33:36;;;;;;;2.40;1.50;;;22.40;53.40;;;;;;215175;1293;24472;-55
2022/01/26 11:49:44;;;;;;;2.60;1.60;;;22.20;54.00;;;;;;215219;1296;22999;-55
2022/01/26 11:54:56;;;;;;;3.60;1.60;;;22.10;53.50;;;;;;215145;1293;22582;-58
2022/01/26 12:00:06;;;;;;;4.00;1.60;;;22.20;53.70;;;;;;215284;1296;25495;-55
2022/01/26 12:05:22;;;;;;;3.10;1.50;;;22.40;52.80;;;;;;215194;1294;24412;-55
2022/01/26 12:10:32;;;;;;;3.00;1.60;;;22.80;51.80;;;;;;215191;1293;22571;-55
2022/01/26 12:15:54;;;;;;;2.60;1.30;;;23.10;51.20;;;;;;215104;1295;22612;-55
2022/01/26 12:42:58;;;;;;;3.90;1.30;;;23.70;49.40;;;;;;214738;1295;22739;-57
2022/01/26 12:48:34;;;;;;;2.90;1.70;;;23.60;49.50;;;;;;215049;1293;22670;-57
2022/01/26 12:53:40;;;;;;;4.40;1.60;;;23.70;49.20;;;;;;215111;1293;22642;-57
2022/01/26 12:58:46;;;;;;;3.40;1.70;;;23.70;49.60;;;;;;214839;1296;24314;-55
2022/01/26 13:03:57;;;;;;;3.30;1.60;;;23.80;50.00;;;;;;214796;1293;24546;-56
2022/01/26 13:09:13;;;;;;;3.10;1.80;;;23.80;49.70;;;;;;215284;1293;26715;-55
2022/01/26 13:14:41;;;;;;;6.70;1.60;;;23.80;49.70;;;;;;215049;1293;22587;-58
2022/01/26 13:31:46;;;;;;;2.60;1.70;;;24.00;49.30;;;;;;215331;1293;22597;-59
2022/01/26 13:53:14;;;;;;;2.80;1.50;;;24.00;49.20;;;;;;215054;1293;25747;-59
2022/01/26 14:03:47;;;;;;;6.40;1.70;;;23.80;49.50;;;;;;215188;1293;23235;-57
2022/01/26 14:08:51;;;;;;;4.10;1.70;;;23.70;49.80;;;;;;215240;1293;22902;-57
2022/01/26 14:13:57;;;;;;;2.80;1.70;;;23.60;50.10;;;;;;215251;1293;22950;-54
2022/01/26 14:25:29;;;;;;;3.90;1.40;;;23.30;50.80;;;;;;214871;1293;25491;-53
2022/01/26 15:40:33;;;;;;;2.80;1.60;;;22.20;53.20;;;;;;215031;1296;25312;-59
2022/01/26 15:51:09;;;;;;;3.40;1.40;;;22.80;51.00;;;;;;215483;1293;22615;-57
2022/01/26 16:07:14;;;;;;;2.70;1.40;;;23.40;49.40;;;;;;215396;1293;24246;-58
2022/01/26 18:17:17;;;;;;;6.90;4.80;;;23.00;50.50;;;;;;215030;1293;22664;-51
2022/01/26 18:32:48;;;;;;;9.60;5.90;;;22.80;51.40;;;;;;215322;1294;22862;-53
2022/01/26 18:54:24;;;;;;;13.10;5.40;;;22.70;53.30;;;;;;215451;1293;23194;-57
2022/01/26 18:59:30;;;;;;;7.40;4.60;;;22.50;53.40;;;;;;215160;1293;25420;-57
2022/01/26 19:04:41;;;;;;;7.70;4.80;;;22.40;53.10;;;;;;214920;1293;24726;-56
2022/01/26 19:09:50;;;;;;;8.50;4.60;;;22.30;53.30;;;;;;215211;1293;22598;-57
2022/01/26 19:15:00;;;;;;;7.50;5.20;;;22.20;53.00;;;;;;215124;1296;22757;-57
2022/01/26 19:25:42;;;;;;;7.80;4.70;;;22.20;52.10;;;;;;214498;1293;24380;-56
2022/01/26 19:57:20;;;;;;;7.40;4.20;;;23.10;49.00;;;;;;215070;1293;23710;-58
2022/01/26 20:02:25;;;;;;;9.30;3.40;;;23.30;49.60;;;;;;215066;1293;25384;-58
2022/01/26 20:07:32;;;;;;;7.80;4.00;;;23.50;49.60;;;;;;215201;1293;22814;-58
2022/01/26 20:12:48;;;;;;;6.60;4.10;;;23.60;49.00;;;;;;215083;1293;26718;-59
2022/01/26 20:17:56;;;;;;;11.00;3.90;;;23.80;49.30;;;;;;215303;1293;25646;-58
2022/01/26 20:23:00;;;;;;;5.60;3.70;;;23.80;48.80;;;;;;215239;1293;22783;-56
2022/01/26 20:28:05;;;;;;;6.20;3.50;;;24.00;48.00;;;;;;214871;1293;22592;-57
2022/01/26 20:33:10;;;;;;;11.50;4.00;;;23.90;48.00;;;;;;214775;1295;26898;-57
2022/01/26 20:38:18;;;;;;;6.50;3.60;;;24.10;47.70;;;;;;214761;1293;22773;-58
2022/01/26 20:43:46;;;;;;;6.50;3.70;;;24.00;47.70;;;;;;215187;1293;24716;-58
2022/01/26 20:48:56;;;;;;;6.10;3.50;;;23.90;47.90;;;;;;215139;1296;22588;-58
2022/01/26 20:54:03;;;;;;;;;;;23.90;48.00;;;;;;215312;1294;24365;-59
2022/01/26 20:59:07;;;;;;;6.10;3.50;;;23.90;47.60;;;;;;215253;1294;22580;-58
2022/01/26 21:04:12;;;;;;;7.50;3.00;;;24.00;47.70;;;;;;215212;1294;25590;-58
2022/01/26 21:09:16;;;;;;;7.00;3.50;;;24.00;47.50;;;;;;215140;1293;22614;-58
2022/01/26 21:14:23;;;;;;;6.30;3.20;;;24.00;47.60;;;;;;215336;1294;22598;-58
2022/01/26 21:19:47;;;;;;;4.20;3.00;;;24.20;47.20;;;;;;215076;1296;24367;-57
2022/01/26 21:24:53;;;;;;;5.00;3.00;;;24.10;47.10;;;;;;215107;1293;22634;-57
2022/01/26 21:29:57;;;;;;;5.00;3.00;;;24.00;47.40;;;;;;215182;1296;22747;-58
2022/01/26 21:35:09;;;;;;;8.50;3.20;;;23.90;47.80;;;;;;215155;1293;24276;-59
2022/01/26 21:40:13;;;;;;;10.20;3.30;;;23.80;48.80;;;;;;215027;1296;22864;-58
2022/01/26 21:45:20;;;;;;;8.20;3.20;;;23.60;52.00;;;;;;215377;1296;22587;-58
2022/01/26 21:50:33;;;;;;;11.30;4.00;;;23.50;50.70;;;;;;215333;1293;22632;-58
2022/01/26 21:55:38;;;;;;;7.10;3.60;;;23.30;51.40;;;;;;215127;1296;22784;-58
2022/01/26 22:00:42;;;;;;;7.40;3.50;;;23.20;55.00;;;;;;215220;1294;25785;-58
2022/01/26 22:05:46;;;;;;;10.50;3.70;;;23.10;55.80;;;;;;215715;1294;25452;-59
2022/01/26 22:10:54;;;;;;;9.30;3.20;;;22.90;56.30;;;;;;215440;1296;22742;-58
2022/01/26 22:16:01;;;;;;;8.70;3.60;;;22.80;56.10;;;;;;215418;1293;22577;-57
2022/01/26 22:21:05;;;;;;;8.20;3.50;;;22.80;56.20;;;;;;215410;1293;26032;-57
2022/01/26 22:26:10;;;;;;;7.10;3.10;;;22.70;56.10;;;;;;214994;1293;24363;-59
2022/01/26 22:31:14;;;;;;;7.90;3.40;;;22.60;56.40;;;;;;215418;1297;24260;-57
2022/01/26 22:36:19;;;;;;;7.00;3.20;;;22.50;56.70;;;;;;214775;1294;22737;-57
2022/01/26 22:41:28;;;;;;;6.90;3.40;;;22.50;56.50;;;;;;214998;1293;22679;-58
2022/01/26 22:46:32;;;;;;;6.40;3.20;;;22.40;56.00;;;;;;214931;1296;22817;-58
2022/01/26 22:51:42;;;;;;;6.00;3.20;;;22.40;56.30;;;;;;215302;1293;25385;-59
2022/01/26 22:56:47;;;;;;;7.60;3.10;;;22.40;56.00;;;;;;214916;1293;23619;-57
2022/01/26 23:07:37;;;;;;;6.70;3.00;;;22.30;55.70;;;;;;215239;1296;22596;-56
2022/01/26 23:12:42;;;;;;;5.90;2.80;;;22.30;55.40;;;;;;215192;1292;22587;-58
2022/01/26 23:18:06;;;;;;;7.50;3.20;;;22.20;55.40;;;;;;215019;1293;24832;-58
2022/01/26 23:23:31;;;;;;;6.00;2.80;;;22.20;55.60;;;;;;215296;1293;24358;-57
